sensor_id;sensor_type;location;lat;lon;timestamp;pressure;altitude;pressure_sealevel;temperature;humidity
25610;BME280;13479;49.044;8.716;2024-01-06T05:00:36;98096.22;;;5.41;83.74
25610;BME280;13479;49.044;8.716;2024-01-06T05:03:02;98090.13;;;5.41;83.55
25610;BME280;13479;49.044;8.716;2024-01-06T05:05:27;98091.81;;;5.42;83.55
25610;BME280;13479;49.044;8.716;2024-01-06T05:07:52;98083.53;;;5.47;83.60
25610;BME280;13479;49.044;8.716;2024-01-06T05:10:18;98086.75;;;5.50;83.43
25610;BME280;13479;49.044;8.716;2024-01-06T05:12:43;98088.56;;;5.50;83.55
25610;BME280;13479;49.044;8.716;2024-01-06T05:15:09;98097.50;;;5.59;83.20
25610;BME280;13479;49.044;8.716;2024-01-06T05:17:34;98112.56;;;5.68;82.14
25610;BME280;13479;49.044;8.716;2024-01-06T05:19:59;98130.88;;;5.69;82.01
25610;BME280;13479;49.044;8.716;2024-01-06T05:22:25;98126.47;;;5.59;81.91
25610;BME280;13479;49.044;8.716;2024-01-06T05:24:50;98109.84;;;5.58;82.25
25610;BME280;13479;49.044;8.716;2024-01-06T05:27:18;98101.69;;;5.61;81.61
25610;BME280;13479;49.044;8.716;2024-01-06T05:29:43;98088.41;;;5.63;82.11
25610;BME280;13479;49.044;8.716;2024-01-06T05:32:09;98083.25;;;5.61;82.17
25610;BME280;13479;49.044;8.716;2024-01-06T05:34:34;98090.19;;;5.74;81.57
25610;BME280;13479;49.044;8.716;2024-01-06T05:36:59;98147.44;;;5.93;79.66
25610;BME280;13479;49.044;8.716;2024-01-06T05:39:24;98128.34;;;5.79;79.82
25610;BME280;13479;49.044;8.716;2024-01-06T05:41:50;98103.94;;;5.77;80.16
25610;BME280;13479;49.044;8.716;2024-01-06T05:44:15;98096.38;;;5.84;79.59
25610;BME280;13479;49.044;8.716;2024-01-06T05:46:40;98093.84;;;5.82;80.12
25610;BME280;13479;49.044;8.716;2024-01-06T05:49:06;98075.78;;;5.78;80.26
25610;BME280;13479;49.044;8.716;2024-01-06T05:51:31;98060.56;;;5.81;79.83
25610;BME280;13479;49.044;8.716;2024-01-06T05:53:56;98084.81;;;5.96;79.11
25610;BME280;13479;49.044;8.716;2024-01-06T05:56:25;98111.03;;;5.98;78.89
25610;BME280;13479;49.044;8.716;2024-01-06T05:58:51;98119.31;;;6.05;78.54
25610;BME280;13479;49.044;8.716;2024-01-06T06:01:17;98118.47;;;6.04;78.03
25610;BME280;13479;49.044;8.716;2024-01-06T06:03:42;98119.16;;;6.06;77.67
25610;BME280;13479;49.044;8.716;2024-01-06T06:06:08;98094.75;;;5.93;78.20
25610;BME280;13479;49.044;8.716;2024-01-06T06:08:33;98069.69;;;5.98;78.32
25610;BME280;13479;49.044;8.716;2024-01-06T06:10:58;98077.78;;;5.85;78.88
25610;BME280;13479;49.044;8.716;2024-01-06T06:13:28;98027.78;;;5.74;79.20
25610;BME280;13479;49.044;8.716;2024-01-06T06:15:53;97997.94;;;5.85;79.87
25610;BME280;13479;49.044;8.716;2024-01-06T06:18:18;97997.34;;;5.81;79.85
25610;BME280;13479;49.044;8.716;2024-01-06T06:20:44;97993.03;;;5.80;80.10
25610;BME280;13479;49.044;8.716;2024-01-06T06:23:09;97990.59;;;5.67;80.24
25610;BME280;13479;49.044;8.716;2024-01-06T06:25:38;97968.91;;;5.75;80.45
25610;BME280;13479;49.044;8.716;2024-01-06T06:28:03;97975.94;;;5.75;80.51
25610;BME280;13479;49.044;8.716;2024-01-06T06:30:28;97981.53;;;5.81;80.59
25610;BME280;13479;49.044;8.716;2024-01-06T06:32:54;97991.91;;;5.94;80.41
25610;BME280;13479;49.044;8.716;2024-01-06T06:35:19;98030.13;;;6.00;79.90
25610;BME280;13479;49.044;8.716;2024-01-06T06:37:44;98089.03;;;6.20;78.75
25610;BME280;13479;49.044;8.716;2024-01-06T06:40:10;98146.66;;;6.25;78.30
25610;BME280;13479;49.044;8.716;2024-01-06T06:42:35;98168.81;;;6.22;78.06
25610;BME280;13479;49.044;8.716;2024-01-06T06:45:00;98162.97;;;6.18;78.14
25610;BME280;13479;49.044;8.716;2024-01-06T06:47:25;98149.59;;;6.10;77.91
25610;BME280;13479;49.044;8.716;2024-01-06T06:49:51;98120.84;;;6.07;78.74
25610;BME280;13479;49.044;8.716;2024-01-06T06:52:16;98105.75;;;6.09;78.44
25610;BME280;13479;49.044;8.716;2024-01-06T06:54:41;98110.16;;;6.09;78.14
25610;BME280;13479;49.044;8.716;2024-01-06T06:57:06;98118.69;;;6.12;78.02
25610;BME280;13479;49.044;8.716;2024-01-06T06:59:32;98114.09;;;6.14;78.20
25610;BME280;13479;49.044;8.716;2024-01-06T07:01:57;98154.09;;;6.20;77.68
25610;BME280;13479;49.044;8.716;2024-01-06T07:04:22;98179.03;;;6.15;77.58
25610;BME280;13479;49.044;8.716;2024-01-06T07:06:48;98166.69;;;6.16;77.59
25610;BME280;13479;49.044;8.716;2024-01-06T07:09:13;98185.22;;;6.26;77.08
25610;BME280;13479;49.044;8.716;2024-01-06T07:11:39;98192.41;;;6.35;76.96
25610;BME280;13479;49.044;8.716;2024-01-06T07:14:04;98207.72;;;6.30;76.81
25610;BME280;13479;49.044;8.716;2024-01-06T07:16:29;98191.91;;;6.30;77.22
25610;BME280;13479;49.044;8.716;2024-01-06T07:18:54;98195.28;;;6.32;76.34
25610;BME280;13479;49.044;8.716;2024-01-06T07:21:20;98196.19;;;6.42;76.65
25610;BME280;13479;49.044;8.716;2024-01-06T07:23:45;98201.22;;;6.45;76.53
25610;BME280;13479;49.044;8.716;2024-01-06T07:26:10;98232.84;;;6.45;75.51
25610;BME280;13479;49.044;8.716;2024-01-06T07:28:35;98222.03;;;6.48;75.44
25610;BME280;13479;49.044;8.716;2024-01-06T07:31:01;98243.03;;;6.50;75.19
25610;BME280;13479;49.044;8.716;2024-01-06T07:33:26;98233.09;;;6.42;75.40
25610;BME280;13479;49.044;8.716;2024-01-06T07:35:51;98209.50;;;6.41;75.67
25610;BME280;13479;49.044;8.716;2024-01-06T07:38:16;98193.56;;;6.42;75.41
25610;BME280;13479;49.044;8.716;2024-01-06T07:40:42;98170.22;;;6.38;75.92
25610;BME280;13479;49.044;8.716;2024-01-06T07:43:09;98147.63;;;6.45;75.85
25610;BME280;13479;49.044;8.716;2024-01-06T07:45:34;98133.88;;;6.41;75.90
25610;BME280;13479;49.044;8.716;2024-01-06T07:48:00;98098.50;;;6.44;76.92
25610;BME280;13479;49.044;8.716;2024-01-06T07:50:26;98099.06;;;6.47;76.59
25610;BME280;13479;49.044;8.716;2024-01-06T07:52:51;98100.56;;;6.61;76.50
25610;BME280;13479;49.044;8.716;2024-01-06T07:55:17;98098.31;;;6.57;76.74
25610;BME280;13479;49.044;8.716;2024-01-06T07:57:43;98098.31;;;6.57;76.62
25610;BME280;13479;49.044;8.716;2024-01-06T08:00:09;98060.50;;;6.46;77.70
25610;BME280;13479;49.044;8.716;2024-01-06T08:02:35;98043.53;;;6.39;77.90
25610;BME280;13479;49.044;8.716;2024-01-06T08:05:00;98008.53;;;6.37;78.58
25610;BME280;13479;49.044;8.716;2024-01-06T08:07:25;98005.22;;;6.35;78.82
25610;BME280;13479;49.044;8.716;2024-01-06T08:09:51;98015.78;;;6.35;78.46
25610;BME280;13479;49.044;8.716;2024-01-06T08:12:16;98010.78;;;6.42;79.12
25610;BME280;13479;49.044;8.716;2024-01-06T08:14:41;98016.44;;;6.37;78.85
25610;BME280;13479;49.044;8.716;2024-01-06T08:17:06;98016.06;;;6.42;79.42
25610;BME280;13479;49.044;8.716;2024-01-06T08:19:32;98011.31;;;6.36;79.45
25610;BME280;13479;49.044;8.716;2024-01-06T08:21:58;98015.50;;;6.38;80.01
25610;BME280;13479;49.044;8.716;2024-01-06T08:24:23;98027.47;;;6.42;79.58
25610;BME280;13479;49.044;8.716;2024-01-06T08:26:49;98043.53;;;6.39;79.89
25610;BME280;13479;49.044;8.716;2024-01-06T08:29:15;98064.94;;;6.46;79.90
25610;BME280;13479;49.044;8.716;2024-01-06T08:31:41;98079.94;;;6.45;79.84
25610;BME280;13479;49.044;8.716;2024-01-06T08:34:06;98075.09;;;6.51;80.11
25610;BME280;13479;49.044;8.716;2024-01-06T08:36:33;98069.56;;;6.54;79.68
25610;BME280;13479;49.044;8.716;2024-01-06T08:38:58;98083.25;;;6.47;79.89
25610;BME280;13479;49.044;8.716;2024-01-06T08:41:23;98072.28;;;6.42;80.20
25610;BME280;13479;49.044;8.716;2024-01-06T08:43:49;98081.31;;;6.49;80.34
25610;BME280;13479;49.044;8.716;2024-01-06T08:46:14;98084.94;;;6.48;80.41
25610;BME280;13479;49.044;8.716;2024-01-06T08:48:39;98101.47;;;6.72;80.13
25610;BME280;13479;49.044;8.716;2024-01-06T08:51:04;98139.16;;;6.62;79.48
25610;BME280;13479;49.044;8.716;2024-01-06T08:53:31;98151.97;;;6.67;79.46
25610;BME280;13479;49.044;8.716;2024-01-06T08:55:56;98163.22;;;6.69;79.30
25610;BME280;13479;49.044;8.716;2024-01-06T08:58:21;98167.25;;;6.73;79.37
25610;BME280;13479;49.044;8.716;2024-01-06T09:00:46;98173.78;;;6.69;79.32
25610;BME280;13479;49.044;8.716;2024-01-06T09:03:12;98173.72;;;6.80;79.07
25610;BME280;13479;49.044;8.716;2024-01-06T09:05:38;98190.63;;;6.78;78.98
25610;BME280;13479;49.044;8.716;2024-01-06T09:08:03;98187.59;;;6.83;79.25
25610;BME280;13479;49.044;8.716;2024-01-06T09:10:28;98200.47;;;6.97;78.42
25610;BME280;13479;49.044;8.716;2024-01-06T09:12:54;98247.53;;;6.92;77.89
25610;BME280;13479;49.044;8.716;2024-01-06T09:15:20;98242.56;;;6.77;78.32
25610;BME280;13479;49.044;8.716;2024-01-06T09:17:45;98228.50;;;6.77;78.47
25610;BME280;13479;49.044;8.716;2024-01-06T09:20:10;98213.28;;;6.80;78.28
25610;BME280;13479;49.044;8.716;2024-01-06T09:22:36;98189.78;;;6.77;78.66
25610;BME280;13479;49.044;8.716;2024-01-06T09:25:01;98195.50;;;6.83;78.90
25610;BME280;13479;49.044;8.716;2024-01-06T09:27:26;98213.84;;;6.84;78.33
25610;BME280;13479;49.044;8.716;2024-01-06T09:29:51;98218.84;;;6.87;78.55
25610;BME280;13479;49.044;8.716;2024-01-06T09:32:17;98226.72;;;6.77;78.26
25610;BME280;13479;49.044;8.716;2024-01-06T09:34:42;98225.47;;;6.82;78.55
25610;BME280;13479;49.044;8.716;2024-01-06T09:37:07;98205.09;;;6.84;78.72
25610;BME280;13479;49.044;8.716;2024-01-06T09:39:33;98202.91;;;6.89;78.86
25610;BME280;13479;49.044;8.716;2024-01-06T09:41:58;98217.06;;;6.88;78.47
25610;BME280;13479;49.044;8.716;2024-01-06T09:44:24;98216.28;;;6.97;78.40
25610;BME280;13479;49.044;8.716;2024-01-06T09:46:49;98252.84;;;7.02;78.16
25610;BME280;13479;49.044;8.716;2024-01-06T09:49:18;98247.47;;;7.03;78.22
25610;BME280;13479;49.044;8.716;2024-01-06T09:51:48;98247.31;;;7.05;78.46
25610;BME280;13479;49.044;8.716;2024-01-06T09:54:20;98244.09;;;7.01;78.71
25610;BME280;13479;49.044;8.716;2024-01-06T09:56:48;98227.50;;;6.89;78.87
25610;BME280;13479;49.044;8.716;2024-01-06T09:59:14;98190.94;;;7.06;78.58
25610;BME280;13479;49.044;8.716;2024-01-06T10:01:39;98218.53;;;7.02;78.99
25610;BME280;13479;49.044;8.716;2024-01-06T10:04:04;98220.69;;;7.08;78.51
25610;BME280;13479;49.044;8.716;2024-01-06T10:06:30;98260.78;;;7.23;77.76
25610;BME280;13479;49.044;8.716;2024-01-06T10:08:55;98284.59;;;7.11;77.82
25610;BME280;13479;49.044;8.716;2024-01-06T10:11:22;98239.97;;;7.08;78.86
25610;BME280;13479;49.044;8.716;2024-01-06T10:13:49;98215.25;;;7.09;78.77
25610;BME280;13479;49.044;8.716;2024-01-06T10:16:15;98229.09;;;7.23;78.35
25610;BME280;13479;49.044;8.716;2024-01-06T10:18:41;98243.13;;;7.23;78.09
25610;BME280;13479;49.044;8.716;2024-01-06T10:21:06;98256.13;;;7.36;77.95
25610;BME280;13479;49.044;8.716;2024-01-06T10:23:32;98258.31;;;7.31;78.29
25610;BME280;13479;49.044;8.716;2024-01-06T10:25:58;98249.28;;;7.34;77.99
25610;BME280;13479;49.044;8.716;2024-01-06T10:28:23;98265.44;;;7.40;77.70
25610;BME280;13479;49.044;8.716;2024-01-06T10:30:51;98320.19;;;7.60;76.96
25610;BME280;13479;49.044;8.716;2024-01-06T10:33:17;98333.31;;;7.50;76.41
25610;BME280;13479;49.044;8.716;2024-01-06T10:35:43;98339.63;;;7.58;76.10
25610;BME280;13479;49.044;8.716;2024-01-06T10:38:11;98318.38;;;7.60;76.62
25610;BME280;13479;49.044;8.716;2024-01-06T10:40:36;98328.44;;;7.66;76.38
25610;BME280;13479;49.044;8.716;2024-01-06T10:43:03;98322.34;;;7.76;75.79
25610;BME280;13479;49.044;8.716;2024-01-06T10:45:29;98337.69;;;7.82;75.42
25610;BME280;13479;49.044;8.716;2024-01-06T10:47:57;98320.16;;;7.81;75.77
25610;BME280;13479;49.044;8.716;2024-01-06T10:50:23;98336.59;;;7.84;75.27
25610;BME280;13479;49.044;8.716;2024-01-06T10:52:48;98320.75;;;7.94;75.19
25610;BME280;13479;49.044;8.716;2024-01-06T10:55:18;98326.03;;;7.94;74.92
25610;BME280;13479;49.044;8.716;2024-01-06T10:57:46;98320.75;;;7.94;74.55
25610;BME280;13479;49.044;8.716;2024-01-06T11:00:12;98313.28;;;7.99;74.86
25610;BME280;13479;49.044;8.716;2024-01-06T11:02:39;98316.94;;;8.18;74.43
25610;BME280;13479;49.044;8.716;2024-01-06T11:05:04;98331.94;;;8.08;74.25
25610;BME280;13479;49.044;8.716;2024-01-06T11:07:33;98324.31;;;8.14;74.00
25610;BME280;13479;49.044;8.716;2024-01-06T11:10:10;98308.44;;;8.14;73.91
25610;BME280;13479;49.044;8.716;2024-01-06T11:12:37;98303.16;;;8.04;74.11
25610;BME280;13479;49.044;8.716;2024-01-06T11:15:02;98297.00;;;8.04;73.79
25610;BME280;13479;49.044;8.716;2024-01-06T11:17:55;98295.47;;;8.01;73.72
25610;BME280;13479;49.044;8.716;2024-01-06T11:20:23;98269.88;;;7.92;74.01
25610;BME280;13479;49.044;8.716;2024-01-06T11:22:49;98255.94;;;7.90;74.38
25610;BME280;13479;49.044;8.716;2024-01-06T11:25:17;98230.22;;;7.92;74.17
25610;BME280;13479;49.044;8.716;2024-01-06T11:27:44;98230.38;;;8.00;74.11
25610;BME280;13479;49.044;8.716;2024-01-06T11:30:20;98235.09;;;8.07;74.29
25610;BME280;13479;49.044;8.716;2024-01-06T11:32:46;98228.97;;;7.96;74.45
25610;BME280;13479;49.044;8.716;2024-01-06T11:35:13;98210.78;;;8.13;74.44
25610;BME280;13479;49.044;8.716;2024-01-06T11:40:11;98233.44;;;8.06;74.34
25610;BME280;13479;49.044;8.716;2024-01-06T11:42:46;98250.97;;;8.07;73.96
25610;BME280;13479;49.044;8.716;2024-01-06T11:45:12;98254.47;;;8.07;74.08
25610;BME280;13479;49.044;8.716;2024-01-06T11:47:38;98264.38;;;8.15;74.05
25610;BME280;13479;49.044;8.716;2024-01-06T11:50:04;98260.03;;;8.14;73.84
25610;BME280;13479;49.044;8.716;2024-01-06T11:52:33;98264.38;;;8.25;73.37
25610;BME280;13479;49.044;8.716;2024-01-06T11:55:00;98270.22;;;8.28;73.56
25610;BME280;13479;49.044;8.716;2024-01-06T11:57:29;98282.47;;;8.29;73.52
25610;BME280;13479;49.044;8.716;2024-01-06T11:59:55;98276.19;;;8.30;73.33
25610;BME280;13479;49.044;8.716;2024-01-06T12:02:20;98291.81;;;8.33;72.90
25610;BME280;13479;49.044;8.716;2024-01-06T12:04:50;98287.75;;;8.29;72.83
25610;BME280;13479;49.044;8.716;2024-01-06T12:07:16;98272.41;;;8.03;72.98
25610;BME280;13479;49.044;8.716;2024-01-06T12:09:41;98267.94;;;8.04;73.23
25610;BME280;13479;49.044;8.716;2024-01-06T12:12:07;98245.66;;;7.97;73.33
25610;BME280;13479;49.044;8.716;2024-01-06T12:14:34;98202.94;;;7.92;73.76
25610;BME280;13479;49.044;8.716;2024-01-06T12:16:59;98201.56;;;7.97;73.63
25610;BME280;13479;49.044;8.716;2024-01-06T12:19:29;98182.75;;;7.91;73.93
25610;BME280;13479;49.044;8.716;2024-01-06T12:21:55;98147.44;;;7.82;74.19
25610;BME280;13479;49.044;8.716;2024-01-06T12:24:21;98111.84;;;7.76;74.65
25610;BME280;13479;49.044;8.716;2024-01-06T12:26:46;98108.78;;;7.81;74.43
25610;BME280;13479;49.044;8.716;2024-01-06T12:29:12;98099.19;;;7.80;74.40
25610;BME280;13479;49.044;8.716;2024-01-06T12:31:39;98098.31;;;7.79;74.73
25610;BME280;13479;49.044;8.716;2024-01-06T12:34:04;98111.94;;;7.75;74.35
25610;BME280;13479;49.044;8.716;2024-01-06T12:36:30;98089.13;;;7.73;75.03
25610;BME280;13479;49.044;8.716;2024-01-06T12:38:57;98072.31;;;7.65;75.45
25610;BME280;13479;49.044;8.716;2024-01-06T12:41:24;98050.38;;;7.74;75.34
25610;BME280;13479;49.044;8.716;2024-01-06T12:43:49;98062.31;;;7.88;75.29
25610;BME280;13479;49.044;8.716;2024-01-06T12:46:14;98065.78;;;7.79;75.19
25610;BME280;13479;49.044;8.716;2024-01-06T12:48:40;98084.28;;;7.88;74.91
25610;BME280;13479;49.044;8.716;2024-01-06T12:51:05;98105.84;;;7.84;74.81
25610;BME280;13479;49.044;8.716;2024-01-06T12:53:30;98121.84;;;7.92;74.59
25610;BME280;13479;49.044;8.716;2024-01-06T12:55:56;98142.56;;;8.07;74.35
25610;BME280;13479;49.044;8.716;2024-01-06T12:58:21;98178.09;;;8.14;73.99
25610;BME280;13479;49.044;8.716;2024-01-06T13:00:47;98196.41;;;8.06;74.05
25610;BME280;13479;49.044;8.716;2024-01-06T13:03:12;98186.41;;;7.99;74.13
25610;BME280;13479;49.044;8.716;2024-01-06T13:05:39;98191.13;;;8.06;74.19
25610;BME280;13479;49.044;8.716;2024-01-06T13:08:05;98195.34;;;8.08;73.74
25610;BME280;13479;49.044;8.716;2024-01-06T13:10:30;98213.28;;;8.04;73.85
25610;BME280;13479;49.044;8.716;2024-01-06T13:12:55;98226.59;;;7.93;73.42
25610;BME280;13479;49.044;8.716;2024-01-06T13:15:21;98225.03;;;7.81;73.81
25610;BME280;13479;49.044;8.716;2024-01-06T13:17:46;98207.38;;;7.81;73.70
25610;BME280;13479;49.044;8.716;2024-01-06T13:20:11;98190.81;;;7.79;74.08
25610;BME280;13479;49.044;8.716;2024-01-06T13:22:37;98170.78;;;7.77;74.31
25610;BME280;13479;49.044;8.716;2024-01-06T13:25:02;98144.22;;;7.68;74.67
25610;BME280;13479;49.044;8.716;2024-01-06T13:27:28;98143.53;;;7.76;74.13
25610;BME280;13479;49.044;8.716;2024-01-06T13:29:54;98170.63;;;7.78;73.76
25610;BME280;13479;49.044;8.716;2024-01-06T13:32:19;98189.44;;;7.85;74.06
25610;BME280;13479;49.044;8.716;2024-01-06T13:34:45;98179.94;;;7.72;74.14
25610;BME280;13479;49.044;8.716;2024-01-06T13:37:10;98147.41;;;7.72;74.84
25610;BME280;13479;49.044;8.716;2024-01-06T13:39:36;98114.00;;;7.61;75.20
25610;BME280;13479;49.044;8.716;2024-01-06T13:42:01;98078.41;;;7.55;75.88
25610;BME280;13479;49.044;8.716;2024-01-06T13:44:28;98049.50;;;7.73;75.95
25610;BME280;13479;49.044;8.716;2024-01-06T13:46:53;98064.09;;;7.68;75.67
25610;BME280;13479;49.044;8.716;2024-01-06T13:49:20;98078.16;;;7.68;75.62
25610;BME280;13479;49.044;8.716;2024-01-06T13:51:45;98077.19;;;7.69;75.71
25610;BME280;13479;49.044;8.716;2024-01-06T13:54:11;98089.31;;;7.82;75.24
25610;BME280;13479;49.044;8.716;2024-01-06T13:56:37;98102.38;;;7.83;75.60
25610;BME280;13479;49.044;8.716;2024-01-06T13:59:02;98106.66;;;7.75;75.72
25610;BME280;13479;49.044;8.716;2024-01-06T14:01:28;98108.59;;;7.72;75.67
25610;BME280;13479;49.044;8.716;2024-01-06T14:03:54;98117.22;;;7.75;75.73
25610;BME280;13479;49.044;8.716;2024-01-06T14:06:26;98106.66;;;7.75;76.08
25610;BME280;13479;49.044;8.716;2024-01-06T14:08:56;98105.97;;;7.72;75.96
25610;BME280;13479;49.044;8.716;2024-01-06T14:11:21;98081.34;;;7.62;76.42
25610;BME280;13479;49.044;8.716;2024-01-06T14:13:47;98080.09;;;7.66;76.31
25610;BME280;13479;49.044;8.716;2024-01-06T14:16:14;98078.16;;;7.68;76.86
25610;BME280;13479;49.044;8.716;2024-01-06T14:18:40;98071.63;;;7.72;76.62
25610;BME280;13479;49.044;8.716;2024-01-06T14:21:05;98079.13;;;7.77;76.98
25610;BME280;13479;49.044;8.716;2024-01-06T14:23:30;98080.50;;;7.71;77.30
25610;BME280;13479;49.044;8.716;2024-01-06T14:25:57;98081.75;;;7.77;77.18
25610;BME280;13479;49.044;8.716;2024-01-06T14:28:23;98090.09;;;7.72;77.24
25610;BME280;13479;49.044;8.716;2024-01-06T14:30:48;98101.09;;;7.68;77.32
25610;BME280;13479;49.044;8.716;2024-01-06T14:33:13;98093.72;;;7.71;77.66
25610;BME280;13479;49.044;8.716;2024-01-06T14:35:39;98103.88;;;7.66;77.50
25610;BME280;13479;49.044;8.716;2024-01-06T14:38:04;98101.91;;;7.58;77.50
25610;BME280;13479;49.044;8.716;2024-01-06T14:40:30;98106.22;;;7.60;77.90
25610;BME280;13479;49.044;8.716;2024-01-06T14:42:56;98119.88;;;7.75;77.49
25610;BME280;13479;49.044;8.716;2024-01-06T14:45:22;98132.94;;;7.66;78.05
25610;BME280;13479;49.044;8.716;2024-01-06T14:47:47;98127.09;;;7.63;78.04
25610;BME280;13479;49.044;8.716;2024-01-06T14:50:13;98112.34;;;7.60;78.14
25610;BME280;13479;49.044;8.716;2024-01-06T14:52:38;98115.13;;;7.58;78.36
25610;BME280;13479;49.044;8.716;2024-01-06T14:55:03;98126.81;;;7.56;78.77
25610;BME280;13479;49.044;8.716;2024-01-06T14:57:29;98141.78;;;7.55;79.07
25610;BME280;13479;49.044;8.716;2024-01-06T14:59:54;98142.38;;;7.59;78.93
25610;BME280;13479;49.044;8.716;2024-01-06T15:02:19;98156.66;;;7.56;79.46
25610;BME280;13479;49.044;8.716;2024-01-06T15:04:44;98163.06;;;7.54;79.63
25610;BME280;13479;49.044;8.716;2024-01-06T15:07:10;98176.31;;;7.64;79.28
25610;BME280;13479;49.044;8.716;2024-01-06T15:09:38;98205.19;;;7.55;79.42
25610;BME280;13479;49.044;8.716;2024-01-06T15:12:04;98208.50;;;7.48;79.41
25610;BME280;13479;49.044;8.716;2024-01-06T15:14:30;98210.44;;;7.46;79.62
25610;BME280;13479;49.044;8.716;2024-01-06T15:16:55;98206.94;;;7.45;80.22
25610;BME280;13479;49.044;8.716;2024-01-06T15:19:20;98213.34;;;7.42;80.20
25610;BME280;13479;49.044;8.716;2024-01-06T15:21:48;98208.88;;;7.43;80.10
25610;BME280;13479;49.044;8.716;2024-01-06T15:24:14;98227.66;;;7.40;80.50
25610;BME280;13479;49.044;8.716;2024-01-06T15:26:41;98237.66;;;7.36;80.52
25610;BME280;13479;49.044;8.716;2024-01-06T15:29:07;98243.19;;;7.33;80.17
25610;BME280;13479;49.044;8.716;2024-01-06T15:31:32;98242.88;;;7.26;80.43
25610;BME280;13479;49.044;8.716;2024-01-06T15:33:57;98249.69;;;7.29;80.49
25610;BME280;13479;49.044;8.716;2024-01-06T15:36:22;98252.72;;;7.24;80.76
25610;BME280;13479;49.044;8.716;2024-01-06T15:38:48;98233.41;;;7.24;81.15
25610;BME280;13479;49.044;8.716;2024-01-06T15:41:13;98254.97;;;7.29;81.53
25610;BME280;13479;49.044;8.716;2024-01-06T15:43:39;98265.00;;;7.35;81.38
25610;BME280;13479;49.044;8.716;2024-01-06T15:46:04;98273.19;;;7.32;81.15
25610;BME280;13479;49.044;8.716;2024-01-06T15:48:29;98273.34;;;7.31;81.58
25610;BME280;13479;49.044;8.716;2024-01-06T15:50:56;98280.50;;;7.50;81.46
25610;BME280;13479;49.044;8.716;2024-01-06T15:53:21;98288.63;;;7.37;81.39
25610;BME280;13479;49.044;8.716;2024-01-06T15:55:47;98289.03;;;7.32;81.65
25610;BME280;13479;49.044;8.716;2024-01-06T15:58:12;98273.72;;;7.26;82.48
25610;BME280;13479;49.044;8.716;2024-01-06T16:00:38;98283.19;;;7.29;82.46
25610;BME280;13479;49.044;8.716;2024-01-06T16:03:03;98292.69;;;7.20;82.82
25610;BME280;13479;49.044;8.716;2024-01-06T16:05:30;98295.59;;;7.17;83.23
25610;BME280;13479;49.044;8.716;2024-01-06T16:07:56;98310.41;;;7.29;83.61
25610;BME280;13479;49.044;8.716;2024-01-06T16:10:21;98323.88;;;7.26;83.35
25610;BME280;13479;49.044;8.716;2024-01-06T16:12:49;98333.44;;;7.27;83.91
25610;BME280;13479;49.044;8.716;2024-01-06T16:15:18;98333.72;;;7.24;83.57
25610;BME280;13479;49.044;8.716;2024-01-06T16:17:45;98351.28;;;7.35;83.46
25610;BME280;13479;49.044;8.716;2024-01-06T16:20:10;98364.16;;;7.28;83.12
25610;BME280;13479;49.044;8.716;2024-01-06T16:22:36;98359.03;;;7.26;83.35
25610;BME280;13479;49.044;8.716;2024-01-06T16:25:01;98345.97;;;7.25;83.71
25610;BME280;13479;49.044;8.716;2024-01-06T16:27:26;98349.69;;;7.22;83.71
25610;BME280;13479;49.044;8.716;2024-01-06T16:29:51;98347.66;;;7.26;83.91
25610;BME280;13479;49.044;8.716;2024-01-06T16:32:17;98352.31;;;7.22;83.95
25610;BME280;13479;49.044;8.716;2024-01-06T16:34:43;98352.66;;;7.29;84.11
25610;BME280;13479;49.044;8.716;2024-01-06T16:37:08;98353.88;;;7.25;83.83
25610;BME280;13479;49.044;8.716;2024-01-06T16:39:33;98357.34;;;7.25;83.78
25610;BME280;13479;49.044;8.716;2024-01-06T16:41:59;98358.66;;;7.31;83.75
25610;BME280;13479;49.044;8.716;2024-01-06T16:44:24;98363.59;;;7.24;83.99
25610;BME280;13479;49.044;8.716;2024-01-06T16:46:50;98365.41;;;7.24;83.66
25610;BME280;13479;49.044;8.716;2024-01-06T16:49:16;98360.13;;;7.24;84.19
25610;BME280;13479;49.044;8.716;2024-01-06T16:51:41;98357.34;;;7.25;84.14
25610;BME280;13479;49.044;8.716;2024-01-06T16:54:06;98365.41;;;7.24;84.26
25610;BME280;13479;49.044;8.716;2024-01-06T16:56:31;98361.81;;;7.25;84.11
25610;BME280;13479;49.044;8.716;2024-01-06T16:58:57;98360.72;;;7.28;84.41
25610;BME280;13479;49.044;8.716;2024-01-06T17:01:23;98366.69;;;7.51;83.86
25610;BME280;13479;49.044;8.716;2024-01-06T17:03:48;98397.75;;;7.37;83.75
25610;BME280;13479;49.044;8.716;2024-01-06T17:06:14;98375.44;;;7.30;84.13
25610;BME280;13479;49.044;8.716;2024-01-06T17:08:39;98382.75;;;7.38;83.71
25610;BME280;13479;49.044;8.716;2024-01-06T17:11:06;98403.03;;;7.37;83.31
25610;BME280;13479;49.044;8.716;2024-01-06T17:13:31;98415.88;;;7.42;83.27
25610;BME280;13479;49.044;8.716;2024-01-06T17:15:56;98414.09;;;7.31;83.68
25610;BME280;13479;49.044;8.716;2024-01-06T17:18:22;98411.69;;;7.28;83.45
25610;BME280;13479;49.044;8.716;2024-01-06T17:20:47;98388.22;;;7.25;84.04
25610;BME280;13479;49.044;8.716;2024-01-06T17:23:12;98370.69;;;7.24;84.03
25610;BME280;13479;49.044;8.716;2024-01-06T17:25:37;98372.38;;;7.25;84.34
25610;BME280;13479;49.044;8.716;2024-01-06T17:28:03;98368.50;;;7.29;83.94
25610;BME280;13479;49.044;8.716;2024-01-06T17:30:29;98378.81;;;7.32;84.40
25610;BME280;13479;49.044;8.716;2024-01-06T17:32:55;98383.38;;;7.30;84.00
25610;BME280;13479;49.044;8.716;2024-01-06T17:35:20;98387.44;;;7.34;84.31
25610;BME280;13479;49.044;8.716;2024-01-06T17:37:46;98399.00;;;7.22;84.16
25610;BME280;13479;49.044;8.716;2024-01-06T17:40:11;98385.09;;;7.20;84.38
25610;BME280;13479;49.044;8.716;2024-01-06T17:42:37;98388.69;;;7.19;84.25
25610;BME280;13479;49.044;8.716;2024-01-06T17:45:03;98407.69;;;7.13;83.91
25610;BME280;13479;49.044;8.716;2024-01-06T17:47:28;98402.53;;;7.11;84.10
25610;BME280;13479;49.044;8.716;2024-01-06T17:49:53;98410.56;;;7.09;83.91
25610;BME280;13479;49.044;8.716;2024-01-06T17:52:18;98417.91;;;7.06;83.79
25610;BME280;13479;49.044;8.716;2024-01-06T17:54:44;98411.09;;;7.03;83.94
25610;BME280;13479;49.044;8.716;2024-01-06T17:57:09;98403.88;;;7.05;83.99
25610;BME280;13479;49.044;8.716;2024-01-06T17:59:42;98398.75;;;6.92;84.04
25610;BME280;13479;49.044;8.716;2024-01-06T18:02:07;98390.97;;;6.91;84.13
25610;BME280;13479;49.044;8.716;2024-01-06T18:04:33;98390.72;;;6.83;84.43